sensor_id;sensor_type;location;lat;lon;timestamp;P1;durP1;ratioP1;P2;durP2;ratioP2
18574;SDS011;9417;16.484;102.872;2023-04-24T00:01:23;18.42;;;10.65;;
18574;SDS011;9417;16.484;102.872;2023-04-24T00:03:30;15.38;;;9.63;;
18574;SDS011;9417;16.484;102.872;2023-04-24T00:05:38;17.90;;;11.27;;
18574;SDS011;9417;16.484;102.872;2023-04-24T00:07:45;15.95;;;11.68;;
18574;SDS011;9417;16.484;102.872;2023-04-24T00:09:56;16.88;;;11.38;;
18574;SDS011;9417;16.484;102.872;2023-04-24T00:12:03;17.55;;;11.65;;
18574;SDS011;9417;16.484;102.872;2023-04-24T00:14:12;15.77;;;10.80;;
18574;SDS011;9417;16.484;102.872;2023-04-24T00:16:19;19.15;;;11.27;;
18574;SDS011;9417;16.484;102.872;2023-04-24T00:18:27;16.42;;;10.73;;
18574;SDS011;9417;16.484;102.872;2023-04-24T00:20:35;24.27;;;21.77;;
18574;SDS011;9417;16.484;102.872;2023-04-24T00:22:43;16.50;;;14.60;;
18574;SDS011;9417;16.484;102.872;2023-04-24T00:24:50;15.93;;;11.38;;
18574;SDS011;9417;16.484;102.872;2023-04-24T00:26:57;15.98;;;10.48;;
18574;SDS011;9417;16.484;102.872;2023-04-24T00:29:06;18.67;;;10.70;;
18574;SDS011;9417;16.484;102.872;2023-04-24T00:31:15;15.52;;;11.15;;
18574;SDS011;9417;16.484;102.872;2023-04-24T00:33:22;16.05;;;11.57;;
18574;SDS011;9417;16.484;102.872;2023-04-24T00:35:30;22.48;;;12.48;;
18574;SDS011;9417;16.484;102.872;2023-04-24T00:37:37;17.48;;;12.23;;
18574;SDS011;9417;16.484;102.872;2023-04-24T00:39:44;15.48;;;11.70;;
18574;SDS011;9417;16.484;102.872;2023-04-24T00:41:52;14.32;;;11.00;;
18574;SDS011;9417;16.484;102.872;2023-04-24T00:43:59;15.43;;;10.73;;
18574;SDS011;9417;16.484;102.872;2023-04-24T00:46:06;16.23;;;11.70;;
18574;SDS011;9417;16.484;102.872;2023-04-24T00:48:16;19.23;;;12.38;;
18574;SDS011;9417;16.484;102.872;2023-04-24T00:50:24;19.30;;;11.93;;
18574;SDS011;9417;16.484;102.872;2023-04-24T00:52:31;16.67;;;11.45;;
18574;SDS011;9417;16.484;102.872;2023-04-24T00:54:39;15.52;;;11.18;;
18574;SDS011;9417;16.484;102.872;2023-04-24T00:56:47;19.42;;;11.05;;
18574;SDS011;9417;16.484;102.872;2023-04-24T00:58:54;15.75;;;11.05;;
18574;SDS011;9417;16.484;102.872;2023-04-24T01:01:03;15.38;;;10.32;;
18574;SDS011;9417;16.484;102.872;2023-04-24T01:03:12;16.42;;;10.57;;
18574;SDS011;9417;16.484;102.872;2023-04-24T01:05:22;17.42;;;11.07;;
18574;SDS011;9417;16.484;102.872;2023-04-24T01:07:29;15.45;;;9.95;;
18574;SDS011;9417;16.484;102.872;2023-04-24T01:09:37;16.23;;;10.70;;
18574;SDS011;9417;16.484;102.872;2023-04-24T01:11:46;18.55;;;11.07;;
18574;SDS011;9417;16.484;102.872;2023-04-24T01:13:54;18.17;;;11.50;;
18574;SDS011;9417;16.484;102.872;2023-04-24T01:16:02;15.85;;;10.65;;
18574;SDS011;9417;16.484;102.872;2023-04-24T01:18:10;14.25;;;9.20;;
18574;SDS011;9417;16.484;102.872;2023-04-24T01:20:17;15.32;;;10.15;;
18574;SDS011;9417;16.484;102.872;2023-04-24T01:22:26;15.20;;;9.68;;
18574;SDS011;9417;16.484;102.872;2023-04-24T01:24:33;16.25;;;10.45;;
18574;SDS011;9417;16.484;102.872;2023-04-24T01:26:41;17.27;;;10.75;;
18574;SDS011;9417;16.484;102.872;2023-04-24T01:28:48;15.05;;;10.85;;
18574;SDS011;9417;16.484;102.872;2023-04-24T01:30:56;16.20;;;10.88;;
18574;SDS011;9417;16.484;102.872;2023-04-24T01:33:04;15.63;;;10.35;;
18574;SDS011;9417;16.484;102.872;2023-04-24T01:35:12;15.00;;;9.43;;
18574;SDS011;9417;16.484;102.872;2023-04-24T01:37:20;14.60;;;9.85;;
18574;SDS011;9417;16.484;102.872;2023-04-24T01:39:29;17.77;;;10.82;;
18574;SDS011;9417;16.484;102.872;2023-04-24T01:41:36;17.50;;;10.68;;
18574;SDS011;9417;16.484;102.872;2023-04-24T01:43:44;15.02;;;9.70;;
18574;SDS011;9417;16.484;102.872;2023-04-24T01:45:51;17.75;;;10.52;;
18574;SDS011;9417;16.484;102.872;2023-04-24T01:47:59;18.67;;;10.65;;
18574;SDS011;9417;16.484;102.872;2023-04-24T01:50:07;15.57;;;10.73;;
18574;SDS011;9417;16.484;102.872;2023-04-24T01:52:15;14.82;;;10.00;;
18574;SDS011;9417;16.484;102.872;2023-04-24T01:54:23;15.18;;;9.50;;
18574;SDS011;9417;16.484;102.872;2023-04-24T01:56:32;12.80;;;9.43;;
18574;SDS011;9417;16.484;102.872;2023-04-24T01:58:40;12.82;;;9.05;;
18574;SDS011;9417;16.484;102.872;2023-04-24T02:00:48;12.98;;;9.60;;
18574;SDS011;9417;16.484;102.872;2023-04-24T02:02:56;12.82;;;9.73;;
18574;SDS011;9417;16.484;102.872;2023-04-24T02:05:06;13.40;;;8.90;;
18574;SDS011;9417;16.484;102.872;2023-04-24T02:07:14;13.73;;;8.57;;
18574;SDS011;9417;16.484;102.872;2023-04-24T02:09:21;17.80;;;9.75;;
18574;SDS011;9417;16.484;102.872;2023-04-24T02:11:29;15.35;;;9.55;;
18574;SDS011;9417;16.484;102.872;2023-04-24T02:13:38;12.98;;;8.93;;
18574;SDS011;9417;16.484;102.872;2023-04-24T02:15:45;14.98;;;9.35;;
18574;SDS011;9417;16.484;102.872;2023-04-24T02:17:53;14.25;;;9.25;;
18574;SDS011;9417;16.484;102.872;2023-04-24T02:20:00;11.95;;;8.90;;
18574;SDS011;9417;16.484;102.872;2023-04-24T02:22:08;13.23;;;8.68;;
18574;SDS011;9417;16.484;102.872;2023-04-24T02:24:16;15.00;;;9.45;;
18574;SDS011;9417;16.484;102.872;2023-04-24T02:26:23;14.55;;;9.45;;
18574;SDS011;9417;16.484;102.872;2023-04-24T02:28:30;15.77;;;8.80;;
18574;SDS011;9417;16.484;102.872;2023-04-24T02:30:39;10.18;;;7.70;;
18574;SDS011;9417;16.484;102.872;2023-04-24T02:32:47;10.50;;;7.75;;
18574;SDS011;9417;16.484;102.872;2023-04-24T02:34:54;10.95;;;7.38;;
18574;SDS011;9417;16.484;102.872;2023-04-24T02:37:02;11.32;;;8.02;;
18574;SDS011;9417;16.484;102.872;2023-04-24T02:39:11;10.05;;;7.40;;
18574;SDS011;9417;16.484;102.872;2023-04-24T02:41:19;9.88;;;7.25;;
18574;SDS011;9417;16.484;102.872;2023-04-24T02:43:27;10.35;;;8.48;;
18574;SDS011;9417;16.484;102.872;2023-04-24T02:45:34;10.50;;;7.68;;
18574;SDS011;9417;16.484;102.872;2023-04-24T02:47:44;11.27;;;7.97;;
18574;SDS011;9417;16.484;102.872;2023-04-24T02:49:51;9.52;;;7.00;;
18574;SDS011;9417;16.484;102.872;2023-04-24T02:51:59;10.48;;;7.60;;
18574;SDS011;9417;16.484;102.872;2023-04-24T02:54:06;12.98;;;7.97;;
18574;SDS011;9417;16.484;102.872;2023-04-24T02:56:14;9.73;;;7.05;;
18574;SDS011;9417;16.484;102.872;2023-04-24T02:58:22;11.30;;;7.85;;
18574;SDS011;9417;16.484;102.872;2023-04-24T03:00:29;10.05;;;7.47;;
18574;SDS011;9417;16.484;102.872;2023-04-24T03:02:37;11.35;;;8.18;;
18574;SDS011;9417;16.484;102.872;2023-04-24T03:04:46;10.45;;;7.97;;
18574;SDS011;9417;16.484;102.872;2023-04-24T03:06:55;13.40;;;8.05;;
18574;SDS011;9417;16.484;102.872;2023-04-24T03:09:02;11.48;;;7.57;;
18574;SDS011;9417;16.484;102.872;2023-04-24T03:11:09;10.00;;;7.43;;
18574;SDS011;9417;16.484;102.872;2023-04-24T03:13:17;10.95;;;7.80;;
18574;SDS011;9417;16.484;102.872;2023-04-24T03:15:24;10.35;;;8.05;;
18574;SDS011;9417;16.484;102.872;2023-04-24T03:17:33;11.27;;;7.95;;
18574;SDS011;9417;16.484;102.872;2023-04-24T03:19:40;11.57;;;7.47;;
18574;SDS011;9417;16.484;102.872;2023-04-24T03:21:50;12.07;;;7.50;;
18574;SDS011;9417;16.484;102.872;2023-04-24T03:23:57;9.45;;;6.97;;
18574;SDS011;9417;16.484;102.872;2023-04-24T03:26:05;10.68;;;7.78;;
18574;SDS011;9417;16.484;102.872;2023-04-24T03:28:18;8.57;;;7.00;;
18574;SDS011;9417;16.484;102.872;2023-04-24T03:30:38;9.68;;;6.35;;
18574;SDS011;9417;16.484;102.872;2023-04-24T03:32:46;9.40;;;7.22;;
18574;SDS011;9417;16.484;102.872;2023-04-24T03:34:58;8.88;;;7.45;;
18574;SDS011;9417;16.484;102.872;2023-04-24T03:37:08;8.77;;;7.28;;
18574;SDS011;9417;16.484;102.872;2023-04-24T03:39:21;9.57;;;7.43;;
18574;SDS011;9417;16.484;102.872;2023-04-24T03:41:30;9.73;;;7.63;;
18574;SDS011;9417;16.484;102.872;2023-04-24T03:43:47;11.02;;;7.90;;
18574;SDS011;9417;16.484;102.872;2023-04-24T03:45:55;11.32;;;8.07;;
18574;SDS011;9417;16.484;102.872;2023-04-24T03:48:05;10.63;;;8.15;;
18574;SDS011;9417;16.484;102.872;2023-04-24T03:50:13;9.63;;;8.13;;
18574;SDS011;9417;16.484;102.872;2023-04-24T03:52:22;10.70;;;8.10;;
18574;SDS011;9417;16.484;102.872;2023-04-24T03:54:30;9.70;;;7.60;;
18574;SDS011;9417;16.484;102.872;2023-04-24T03:56:37;12.43;;;8.27;;
18574;SDS011;9417;16.484;102.872;2023-04-24T03:58:45;11.10;;;8.38;;
18574;SDS011;9417;16.484;102.872;2023-04-24T04:00:52;9.65;;;8.10;;
18574;SDS011;9417;16.484;102.872;2023-04-24T04:03:19;13.32;;;8.15;;
18574;SDS011;9417;16.484;102.872;2023-04-24T04:05:26;9.07;;;7.75;;
18574;SDS011;9417;16.484;102.872;2023-04-24T04:07:35;11.95;;;8.52;;
18574;SDS011;9417;16.484;102.872;2023-04-24T04:09:43;12.45;;;8.57;;
18574;SDS011;9417;16.484;102.872;2023-04-24T04:11:51;11.93;;;8.32;;
18574;SDS011;9417;16.484;102.872;2023-04-24T04:13:58;11.02;;;8.98;;
18574;SDS011;9417;16.484;102.872;2023-04-24T04:16:08;10.68;;;8.57;;
18574;SDS011;9417;16.484;102.872;2023-04-24T04:18:16;11.13;;;8.63;;
18574;SDS011;9417;16.484;102.872;2023-04-24T04:20:24;10.75;;;8.32;;
18574;SDS011;9417;16.484;102.872;2023-04-24T04:22:31;11.93;;;8.52;;
18574;SDS011;9417;16.484;102.872;2023-04-24T04:24:44;10.90;;;8.00;;
18574;SDS011;9417;16.484;102.872;2023-04-24T04:26:52;11.73;;;7.75;;
18574;SDS011;9417;16.484;102.872;2023-04-24T04:29:09;9.70;;;8.00;;
18574;SDS011;9417;16.484;102.872;2023-04-24T04:31:20;10.85;;;8.05;;
18574;SDS011;9417;16.484;102.872;2023-04-24T04:33:29;11.05;;;8.27;;
18574;SDS011;9417;16.484;102.872;2023-04-24T04:35:37;9.80;;;8.13;;
18574;SDS011;9417;16.484;102.872;2023-04-24T04:37:45;10.98;;;8.50;;
18574;SDS011;9417;16.484;102.872;2023-04-24T04:40:14;10.98;;;8.82;;
18574;SDS011;9417;16.484;102.872;2023-04-24T04:42:31;13.50;;;8.50;;
18574;SDS011;9417;16.484;102.872;2023-04-24T04:44:39;9.85;;;7.70;;
18574;SDS011;9417;16.484;102.872;2023-04-24T04:46:54;10.95;;;7.68;;
18574;SDS011;9417;16.484;102.872;2023-04-24T04:49:05;10.18;;;8.57;;
18574;SDS011;9417;16.484;102.872;2023-04-24T04:51:14;13.10;;;8.27;;
18574;SDS011;9417;16.484;102.872;2023-04-24T04:53:22;11.57;;;8.18;;
18574;SDS011;9417;16.484;102.872;2023-04-24T04:55:31;11.45;;;8.65;;
18574;SDS011;9417;16.484;102.872;2023-04-24T04:57:46;11.82;;;8.40;;
18574;SDS011;9417;16.484;102.872;2023-04-24T04:59:54;12.88;;;8.57;;
18574;SDS011;9417;16.484;102.872;2023-04-24T05:02:14;10.60;;;8.77;;
18574;SDS011;9417;16.484;102.872;2023-04-24T05:04:22;10.05;;;8.30;;
18574;SDS011;9417;16.484;102.872;2023-04-24T05:06:30;11.48;;;8.93;;
18574;SDS011;9417;16.484;102.872;2023-04-24T05:08:39;11.23;;;8.57;;
18574;SDS011;9417;16.484;102.872;2023-04-24T05:10:59;11.95;;;9.55;;
18574;SDS011;9417;16.484;102.872;2023-04-24T05:13:07;12.23;;;8.68;;
18574;SDS011;9417;16.484;102.872;2023-04-24T05:15:16;12.00;;;8.98;;
18574;SDS011;9417;16.484;102.872;2023-04-24T05:17:23;12.30;;;8.82;;
18574;SDS011;9417;16.484;102.872;2023-04-24T05:19:32;12.10;;;8.85;;
18574;SDS011;9417;16.484;102.872;2023-04-24T05:21:42;11.65;;;9.18;;
18574;SDS011;9417;16.484;102.872;2023-04-24T05:23:50;11.13;;;9.13;;
18574;SDS011;9417;16.484;102.872;2023-04-24T05:26:28;10.73;;;8.35;;
18574;SDS011;9417;16.484;102.872;2023-04-24T05:28:35;10.57;;;9.15;;
18574;SDS011;9417;16.484;102.872;2023-04-24T05:30:46;13.32;;;8.98;;
18574;SDS011;9417;16.484;102.872;2023-04-24T05:32:55;10.18;;;8.23;;
18574;SDS011;9417;16.484;102.872;2023-04-24T05:35:06;11.65;;;10.27;;
18574;SDS011;9417;16.484;102.872;2023-04-24T05:37:14;11.55;;;8.82;;
18574;SDS011;9417;16.484;102.872;2023-04-24T05:39:21;11.23;;;10.05;;
18574;SDS011;9417;16.484;102.872;2023-04-24T05:41:31;12.15;;;9.30;;
18574;SDS011;9417;16.484;102.872;2023-04-24T05:43:39;10.80;;;8.60;;
18574;SDS011;9417;16.484;102.872;2023-04-24T05:45:46;10.52;;;8.45;;
18574;SDS011;9417;16.484;102.872;2023-04-24T05:47:53;11.48;;;8.52;;
18574;SDS011;9417;16.484;102.872;2023-04-24T05:50:01;10.88;;;8.23;;
18574;SDS011;9417;16.484;102.872;2023-04-24T05:52:08;13.07;;;8.30;;
18574;SDS011;9417;16.484;102.872;2023-04-24T05:54:17;10.93;;;9.50;;
18574;SDS011;9417;16.484;102.872;2023-04-24T05:56:24;11.98;;;9.10;;
18574;SDS011;9417;16.484;102.872;2023-04-24T05:58:34;14.77;;;10.85;;
18574;SDS011;9417;16.484;102.872;2023-04-24T06:00:44;10.07;;;8.98;;
18574;SDS011;9417;16.484;102.872;2023-04-24T06:02:52;10.15;;;8.85;;
18574;SDS011;9417;16.484;102.872;2023-04-24T06:05:00;11.07;;;8.70;;
18574;SDS011;9417;16.484;102.872;2023-04-24T06:07:08;11.50;;;8.93;;
18574;SDS011;9417;16.484;102.872;2023-04-24T06:09:18;12.82;;;9.23;;
18574;SDS011;9417;16.484;102.872;2023-04-24T06:11:25;14.27;;;9.63;;
18574;SDS011;9417;16.484;102.872;2023-04-24T06:13:34;10.73;;;9.63;;
18574;SDS011;9417;16.484;102.872;2023-04-24T06:15:59;13.40;;;10.13;;
18574;SDS011;9417;16.484;102.872;2023-04-24T06:20:18;14.10;;;10.38;;
18574;SDS011;9417;16.484;102.872;2023-04-24T06:22:25;11.82;;;10.23;;
18574;SDS011;9417;16.484;102.872;2023-04-24T06:24:34;12.70;;;9.93;;
18574;SDS011;9417;16.484;102.872;2023-04-24T06:26:41;10.93;;;9.65;;
18574;SDS011;9417;16.484;102.872;2023-04-24T06:28:50;11.35;;;9.98;;
18574;SDS011;9417;16.484;102.872;2023-04-24T06:30:59;13.07;;;10.32;;
18574;SDS011;9417;16.484;102.872;2023-04-24T06:33:07;13.75;;;10.10;;
18574;SDS011;9417;16.484;102.872;2023-04-24T06:35:23;12.52;;;9.88;;
18574;SDS011;9417;16.484;102.872;2023-04-24T06:37:30;12.88;;;10.32;;
18574;SDS011;9417;16.484;102.872;2023-04-24T06:39:38;11.50;;;9.23;;
18574;SDS011;9417;16.484;102.872;2023-04-24T06:41:46;13.82;;;10.63;;
18574;SDS011;9417;16.484;102.872;2023-04-24T06:43:56;13.10;;;10.73;;
18574;SDS011;9417;16.484;102.872;2023-04-24T06:46:04;13.18;;;11.27;;
18574;SDS011;9417;16.484;102.872;2023-04-24T06:48:11;13.63;;;10.35;;
18574;SDS011;9417;16.484;102.872;2023-04-24T06:50:19;12.25;;;10.75;;
18574;SDS011;9417;16.484;102.872;2023-04-24T06:52:26;14.23;;;11.45;;
18574;SDS011;9417;16.484;102.872;2023-04-24T06:54:36;12.82;;;10.90;;
18574;SDS011;9417;16.484;102.872;2023-04-24T06:56:43;16.20;;;11.23;;
18574;SDS011;9417;16.484;102.872;2023-04-24T06:58:51;13.68;;;11.73;;
18574;SDS011;9417;16.484;102.872;2023-04-24T07:01:00;16.13;;;11.77;;
18574;SDS011;9417;16.484;102.872;2023-04-24T07:03:08;12.20;;;10.30;;
18574;SDS011;9417;16.484;102.872;2023-04-24T07:05:15;14.95;;;11.05;;
18574;SDS011;9417;16.484;102.872;2023-04-24T07:07:24;13.45;;;10.90;;
18574;SDS011;9417;16.484;102.872;2023-04-24T07:09:31;14.15;;;11.05;;
18574;SDS011;9417;16.484;102.872;2023-04-24T07:11:42;14.60;;;11.03;;
18574;SDS011;9417;16.484;102.872;2023-04-24T07:13:50;16.10;;;11.93;;
18574;SDS011;9417;16.484;102.872;2023-04-24T07:15:57;15.38;;;11.25;;
18574;SDS011;9417;16.484;102.872;2023-04-24T07:18:06;14.60;;;12.07;;
18574;SDS011;9417;16.484;102.872;2023-04-24T07:20:14;15.80;;;11.80;;
18574;SDS011;9417;16.484;102.872;2023-04-24T07:22:21;14.43;;;11.88;;
18574;SDS011;9417;16.484;102.872;2023-04-24T07:24:29;13.52;;;11.23;;
18574;SDS011;9417;16.484;102.872;2023-04-24T07:26:37;13.85;;;11.25;;
18574;SDS011;9417;16.484;102.872;2023-04-24T07:28:45;15.60;;;11.82;;
18574;SDS011;9417;16.484;102.872;2023-04-24T07:30:52;14.65;;;11.65;;
18574;SDS011;9417;16.484;102.872;2023-04-24T07:33:01;13.90;;;10.80;;
18574;SDS011;9417;16.484;102.872;2023-04-24T07:35:09;17.77;;;11.82;;
18574;SDS011;9417;16.484;102.872;2023-04-24T07:37:16;13.75;;;11.30;;
18574;SDS011;9417;16.484;102.872;2023-04-24T07:39:23;14.07;;;11.90;;
18574;SDS011;9417;16.484;102.872;2023-04-24T07:41:32;16.77;;;11.25;;
18574;SDS011;9417;16.484;102.872;2023-04-24T07:43:40;15.43;;;11.07;;
18574;SDS011;9417;16.484;102.872;2023-04-24T07:45:47;15.35;;;12.07;;
18574;SDS011;9417;16.484;102.872;2023-04-24T07:47:55;13.13;;;11.10;;
18574;SDS011;9417;16.484;102.872;2023-04-24T07:50:04;14.63;;;11.63;;
18574;SDS011;9417;16.484;102.872;2023-04-24T07:52:12;13.73;;;11.38;;
18574;SDS011;9417;16.484;102.872;2023-04-24T07:54:19;14.15;;;11.00;;
18574;SDS011;9417;16.484;102.872;2023-04-24T07:56:26;14.45;;;11.77;;
18574;SDS011;9417;16.484;102.872;2023-04-24T07:58:34;15.57;;;11.32;;
18574;SDS011;9417;16.484;102.872;2023-04-24T08:00:42;16.05;;;12.05;;
18574;SDS011;9417;16.484;102.872;2023-04-24T08:02:49;13.98;;;12.02;;
18574;SDS011;9417;16.484;102.872;2023-04-24T08:04:57;13.82;;;11.27;;
18574;SDS011;9417;16.484;102.872;2023-04-24T08:07:07;13.38;;;11.43;;
18574;SDS011;9417;16.484;102.872;2023-04-24T08:11:23;12.35;;;10.85;;
18574;SDS011;9417;16.484;102.872;2023-04-24T08:13:30;14.00;;;11.23;;
18574;SDS011;9417;16.484;102.872;2023-04-24T08:15:37;13.65;;;11.93;;
18574;SDS011;9417;16.484;102.872;2023-04-24T08:17:45;13.00;;;11.32;;
18574;SDS011;9417;16.484;102.872;2023-04-24T08:19:53;13.70;;;11.13;;
18574;SDS011;9417;16.484;102.872;2023-04-24T08:22:06;13.10;;;10.95;;
18574;SDS011;9417;16.484;102.872;2023-04-24T08:24:14;13.77;;;11.90;;
18574;SDS011;9417;16.484;102.872;2023-04-24T08:26:21;14.07;;;11.75;;
18574;SDS011;9417;16.484;102.872;2023-04-24T08:28:29;16.15;;;11.70;;
18574;SDS011;9417;16.484;102.872;2023-04-24T08:30:36;15.70;;;11.25;;
18574;SDS011;9417;16.484;102.872;2023-04-24T08:32:44;15.40;;;12.15;;
18574;SDS011;9417;16.484;102.872;2023-04-24T08:34:52;14.80;;;11.00;;
18574;SDS011;9417;16.484;102.872;2023-04-24T08:36:59;14.60;;;11.25;;
18574;SDS011;9417;16.484;102.872;2023-04-24T08:39:09;14.52;;;10.63;;
18574;SDS011;9417;16.484;102.872;2023-04-24T08:41:17;14.27;;;10.90;;
18574;SDS011;9417;16.484;102.872;2023-04-24T08:43:26;14.52;;;11.30;;
18574;SDS011;9417;16.484;102.872;2023-04-24T08:45:33;14.73;;;11.85;;
18574;SDS011;9417;16.484;102.872;2023-04-24T08:47:42;15.25;;;11.63;;
18574;SDS011;9417;16.484;102.872;2023-04-24T08:49:49;14.00;;;11.25;;
18574;SDS011;9417;16.484;102.872;2023-04-24T08:51:57;14.80;;;11.13;;
18574;SDS011;9417;16.484;102.872;2023-04-24T08:54:05;13.85;;;11.27;;
18574;SDS011;9417;16.484;102.872;2023-04-24T08:56:14;13.63;;;11.35;;
18574;SDS011;9417;16.484;102.872;2023-04-24T08:58:22;14.10;;;12.02;;
18574;SDS011;9417;16.484;102.872;2023-04-24T09:00:31;15.80;;;12.70;;
18574;SDS011;9417;16.484;102.872;2023-04-24T09:02:40;15.55;;;12.05;;
18574;SDS011;9417;16.484;102.872;2023-04-24T09:04:49;14.77;;;11.65;;
18574;SDS011;9417;16.484;102.872;2023-04-24T09:06:57;17.33;;;12.18;;
18574;SDS011;9417;16.484;102.872;2023-04-24T09:09:04;13.25;;;11.85;;
18574;SDS011;9417;16.484;102.872;2023-04-24T09:11:11;15.10;;;11.82;;
18574;SDS011;9417;16.484;102.872;2023-04-24T09:13:21;15.68;;;12.07;;
18574;SDS011;9417;16.484;102.872;2023-04-24T09:15:28;16.52;;;13.45;;
18574;SDS011;9417;16.484;102.872;2023-04-24T09:17:36;12.65;;;10.98;;
18574;SDS011;9417;16.484;102.872;2023-04-24T09:19:44;16.13;;;12.15;;
18574;SDS011;9417;16.484;102.872;2023-04-24T09:21:51;14.60;;;11.38;;
18574;SDS011;9417;16.484;102.872;2023-04-24T09:23:59;15.60;;;12.20;;
18574;SDS011;9417;16.484;102.872;2023-04-24T09:26:08;12.25;;;10.82;;
18574;SDS011;9417;16.484;102.872;2023-04-24T09:28:19;13.93;;;11.48;;
18574;SDS011;9417;16.484;102.872;2023-04-24T09:30:33;16.92;;;12.23;;
18574;SDS011;9417;16.484;102.872;2023-04-24T09:32:40;14.95;;;11.93;;
18574;SDS011;9417;16.484;102.872;2023-04-24T09:34:47;14.95;;;11.60;;
18574;SDS011;9417;16.484;102.872;2023-04-24T09:36:55;15.25;;;11.07;;
18574;SDS011;9417;16.484;102.872;2023-04-24T09:39:02;13.70;;;11.48;;
18574;SDS011;9417;16.484;102.872;2023-04-24T09:41:13;14.50;;;11.20;;
18574;SDS011;9417;16.484;102.872;2023-04-24T09:43:22;15.00;;;12.05;;
18574;SDS011;9417;16.484;102.872;2023-04-24T09:45:35;14.10;;;11.02;;
18574;SDS011;9417;16.484;102.872;2023-04-24T09:47:43;14.30;;;10.60;;
18574;SDS011;9417;16.484;102.872;2023-04-24T09:49:50;13.50;;;11.07;;
18574;SDS011;9417;16.484;102.872;2023-04-24T09:52:03;12.65;;;10.55;;
18574;SDS011;9417;16.484;102.872;2023-04-24T09:54:13;13.75;;;11.15;;
18574;SDS011;9417;16.484;102.872;2023-04-24T09:56:21;12.30;;;10.88;;
18574;SDS011;9417;16.484;102.872;2023-04-24T09:58:34;12.55;;;11.23;;
18574;SDS011;9417;16.484;102.872;2023-04-24T10:00:42;15.25;;;10.88;;
18574;SDS011;9417;16.484;102.872;2023-04-24T10:02:54;12.90;;;11.45;;
18574;SDS011;9417;16.484;102.872;2023-04-24T10:05:05;14.73;;;12.00;;
18574;SDS011;9417;16.484;102.872;2023-04-24T10:07:13;16.13;;;11.10;;
18574;SDS011;9417;16.484;102.872;2023-04-24T10:09:22;15.05;;;11.65;;
18574;SDS011;9417;16.484;102.872;2023-04-24T10:11:30;14.07;;;11.35;;
18574;SDS011;9417;16.484;102.872;2023-04-24T10:13:39;12.80;;;10.45;;
18574;SDS011;9417;16.484;102.872;2023-04-24T10:15:46;12.65;;;10.55;;
18574;SDS011;9417;16.484;102.872;2023-04-24T10:17:55;12.55;;;10.68;;
18574;SDS011;9417;16.484;102.872;2023-04-24T10:20:05;13.32;;;11.45;;
18574;SDS011;9417;16.484;102.872;2023-04-24T10:22:14;13.27;;;10.73;;
18574;SDS011;9417;16.484;102.872;2023-04-24T10:24:23;13.48;;;10.73;;
18574;SDS011;9417;16.484;102.872;2023-04-24T10:26:31;12.85;;;11.13;;
18574;SDS011;9417;16.484;102.872;2023-04-24T10:28:40;11.98;;;9.93;;
18574;SDS011;9417;16.484;102.872;2023-04-24T10:30:50;13.07;;;10.55;;
18574;SDS011;9417;16.484;102.872;2023-04-24T10:33:00;13.27;;;11.05;;
18574;SDS011;9417;16.484;102.872;2023-04-24T10:35:08;13.65;;;11.00;;
18574;SDS011;9417;16.484;102.872;2023-04-24T10:37:17;13.00;;;11.25;;
18574;SDS011;9417;16.484;102.872;2023-04-24T10:39:25;13.77;;;11.07;;
18574;SDS011;9417;16.484;102.872;2023-04-24T10:41:32;14.23;;;11.07;;
18574;SDS011;9417;16.484;102.872;2023-04-24T10:43:44;12.20;;;10.43;;
18574;SDS011;9417;16.484;102.872;2023-04-24T10:46:00;13.55;;;9.82;;
18574;SDS011;9417;16.484;102.872;2023-04-24T10:48:09;14.02;;;10.88;;
18574;SDS011;9417;16.484;102.872;2023-04-24T10:50:19;13.88;;;10.73;;
18574;SDS011;9417;16.484;102.872;2023-04-24T10:54:52;13.82;;;10.60;;
18574;SDS011;9417;16.484;102.872;2023-04-24T10:59:36;12.00;;;10.02;;
18574;SDS011;9417;16.484;102.872;2023-04-24T11:01:43;13.20;;;10.43;;
18574;SDS011;9417;16.484;102.872;2023-04-24T11:04:00;11.70;;;9.82;;
18574;SDS011;9417;16.484;102.872;2023-04-24T11:06:08;12.52;;;10.35;;
18574;SDS011;9417;16.484;102.872;2023-04-24T11:08:22;13.77;;;10.13;;
18574;SDS011;9417;16.484;102.872;2023-04-24T11:10:31;13.90;;;10.90;;
18574;SDS011;9417;16.484;102.872;2023-04-24T11:12:39;13.85;;;11.05;;
18574;SDS011;9417;16.484;102.872;2023-04-24T11:15:03;13.77;;;10.50;;
18574;SDS011;9417;16.484;102.872;2023-04-24T11:17:27;12.57;;;10.88;;
18574;SDS011;9417;16.484;102.872;2023-04-24T11:19:36;15.40;;;11.13;;
18574;SDS011;9417;16.484;102.872;2023-04-24T11:21:46;15.00;;;10.35;;
18574;SDS011;9417;16.484;102.872;2023-04-24T11:23:55;18.52;;;11.43;;
18574;SDS011;9417;16.484;102.872;2023-04-24T11:28:33;15.43;;;12.15;;
18574;SDS011;9417;16.484;102.872;2023-04-24T11:30:45;18.83;;;13.00;;
18574;SDS011;9417;16.484;102.872;2023-04-24T11:32:53;19.48;;;14.43;;
18574;SDS011;9417;16.484;102.872;2023-04-24T11:35:00;14.82;;;12.55;;
18574;SDS011;9417;16.484;102.872;2023-04-24T11:37:09;17.40;;;12.35;;
18574;SDS011;9417;16.484;102.872;2023-04-24T11:39:17;14.18;;;11.75;;
18574;SDS011;9417;16.484;102.872;2023-04-24T11:41:24;13.60;;;11.95;;
18574;SDS011;9417;16.484;102.872;2023-04-24T11:43:32;12.57;;;11.13;;
18574;SDS011;9417;16.484;102.872;2023-04-24T11:45:47;18.08;;;12.43;;
18574;SDS011;9417;16.484;102.872;2023-04-24T11:47:57;19.05;;;12.88;;
18574;SDS011;9417;16.484;102.872;2023-04-24T11:50:06;21.25;;;13.27;;
18574;SDS011;9417;16.484;102.872;2023-04-24T11:52:15;19.08;;;12.43;;
18574;SDS011;9417;16.484;102.872;2023-04-24T11:54:23;17.70;;;12.95;;
18574;SDS011;9417;16.484;102.872;2023-04-24T11:56:30;16.30;;;12.15;;
18574;SDS011;9417;16.484;102.872;2023-04-24T11:58:37;14.27;;;12.02;;
18574;SDS011;9417;16.484;102.872;2023-04-24T12:00:45;15.27;;;10.93;;
18574;SDS011;9417;16.484;102.872;2023-04-24T12:03:06;16.48;;;11.88;;
18574;SDS011;9417;16.484;102.872;2023-04-24T12:05:19;17.27;;;11.90;;
18574;SDS011;9417;16.484;102.872;2023-04-24T12:07:28;15.88;;;11.98;;
18574;SDS011;9417;16.484;102.872;2023-04-24T12:09:46;18.27;;;12.52;;
18574;SDS011;9417;16.484;102.872;2023-04-24T12:11:55;16.58;;;12.98;;
18574;SDS011;9417;16.484;102.872;2023-04-24T12:14:09;16.08;;;11.68;;
18574;SDS011;9417;16.484;102.872;2023-04-24T12:16:17;16.30;;;11.82;;
18574;SDS011;9417;16.484;102.872;2023-04-24T12:18:26;20.40;;;11.75;;
18574;SDS011;9417;16.484;102.872;2023-04-24T12:20:35;16.55;;;12.02;;
18574;SDS011;9417;16.484;102.872;2023-04-24T12:22:46;17.70;;;11.57;;
18574;SDS011;9417;16.484;102.872;2023-04-24T12:25:00;15.25;;;12.23;;
18574;SDS011;9417;16.484;102.872;2023-04-24T12:27:19;13.23;;;11.07;;
18574;SDS011;9417;16.484;102.872;2023-04-24T12:29:27;16.38;;;11.57;;
18574;SDS011;9417;16.484;102.872;2023-04-24T12:31:34;14.15;;;12.15;;
18574;SDS011;9417;16.484;102.872;2023-04-24T12:33:43;15.35;;;11.70;;
18574;SDS011;9417;16.484;102.872;2023-04-24T12:35:51;16.15;;;11.98;;
18574;SDS011;9417;16.484;102.872;2023-04-24T12:38:05;14.68;;;11.57;;
18574;SDS011;9417;16.484;102.872;2023-04-24T12:40:13;17.00;;;11.88;;